createdAt,value
2018-11-23T00:02:32.121Z,14.62
2018-11-23T00:08:27.138Z,17.69
2018-11-23T00:14:22.135Z,14.3
2018-11-23T00:20:17.163Z,16.42
2018-11-23T00:26:12.204Z,23.62
2018-11-23T00:32:07.224Z,20.59
2018-11-23T00:38:02.172Z,24.87
2018-11-23T00:43:57.184Z,27
2018-11-23T00:49:52.191Z,27.87
2018-11-23T00:55:47.208Z,25.27
2018-11-23T01:01:42.187Z,21.2
2018-11-23T01:07:37.173Z,22.82
2018-11-23T01:13:32.216Z,20.56
2018-11-23T01:19:27.198Z,20.18
2018-11-23T01:25:22.211Z,18.5
2018-11-23T01:31:17.198Z,22.52
2018-11-23T01:37:12.234Z,23.24
2018-11-23T01:43:07.287Z,16.66
2018-11-23T01:49:02.260Z,20.14
2018-11-23T01:54:57.307Z,11.78
2018-11-23T02:00:52.245Z,15.88
2018-11-23T02:06:47.247Z,12.6
2018-11-23T02:12:42.227Z,11.77
2018-11-23T02:18:37.274Z,8.65
2018-11-23T02:24:32.285Z,17.95
2018-11-23T02:30:27.277Z,17.5
2018-11-23T02:36:22.264Z,16.73
2018-11-23T02:42:17.263Z,18.88
2018-11-23T02:48:12.267Z,17.37
2018-11-23T02:54:07.283Z,18.11
2018-11-23T03:00:02.319Z,18.36
2018-11-23T03:05:57.305Z,20.58
2018-11-23T03:11:52.294Z,21.5
2018-11-23T03:17:47.293Z,26.56
2018-11-23T03:23:42.310Z,26.43
2018-11-23T03:29:37.333Z,13.91
2018-11-23T03:35:32.307Z,11.81
2018-11-23T03:41:27.319Z,7.79
2018-11-23T03:47:22.351Z,10.71
2018-11-23T03:53:17.331Z,9.27
2018-11-23T03:59:12.337Z,4.77
2018-11-23T04:05:07.347Z,9.51
2018-11-23T04:11:02.343Z,6.23
2018-11-23T04:16:57.406Z,5.83
2018-11-23T04:22:52.353Z,7.03
2018-11-23T04:28:47.363Z,5.88
2018-11-23T04:34:42.348Z,14.88
2018-11-23T04:40:37.381Z,13.85
2018-11-23T04:46:32.396Z,19.17
2018-11-23T04:52:27.370Z,20.07
2018-11-23T04:58:22.423Z,23.45
2018-11-23T05:04:17.399Z,18.62
2018-11-23T05:10:12.389Z,21.79
2018-11-23T05:16:07.450Z,25.91
2018-11-23T05:22:02.393Z,22.96
2018-11-23T05:27:57.441Z,23.11
2018-11-23T05:33:52.499Z,24.57
2018-11-23T05:39:47.420Z,21.25
2018-11-23T05:45:42.473Z,23.68
2018-11-23T05:51:37.456Z,25.49
2018-11-23T05:57:32.425Z,25.01
2018-11-23T06:03:27.462Z,23.18
2018-11-23T06:09:22.472Z,22.58
2018-11-23T06:15:17.440Z,19.79
2018-11-23T06:21:12.473Z,22.14
2018-11-23T06:27:07.479Z,23.86
2018-11-23T06:33:02.522Z,26.06
2018-11-23T06:38:57.464Z,25.97
2018-11-23T06:44:52.465Z,24.42
2018-11-23T06:50:47.485Z,21.66
2018-11-23T06:56:42.489Z,25.82
2018-11-23T07:02:37.515Z,24.8
2018-11-23T07:08:32.488Z,21.91
2018-11-23T07:14:27.493Z,26.9
2018-11-23T07:20:22.512Z,24.26
2018-11-23T07:26:17.494Z,25.13
2018-11-23T07:32:12.512Z,28.08
2018-11-23T07:38:07.515Z,30.17
2018-11-23T07:44:02.530Z,27.33
2018-11-23T07:49:57.541Z,23.06
2018-11-23T07:55:52.540Z,22.97
2018-11-23T08:01:47.529Z,22.7
2018-11-23T08:07:42.577Z,20.28
2018-11-23T08:13:37.590Z,25.41
2018-11-23T08:19:32.577Z,21.6
2018-11-23T08:25:27.576Z,21.96
2018-11-23T08:31:22.564Z,23.01
2018-11-23T08:37:17.628Z,32.32
2018-11-23T08:43:12.584Z,27.67
2018-11-23T08:49:07.686Z,28.47
2018-11-23T08:55:02.580Z,25.66
2018-11-23T09:00:57.679Z,26.69
2018-11-23T09:06:52.612Z,22.61
2018-11-23T09:12:47.590Z,30.68
2018-11-23T09:18:42.646Z,25.84
2018-11-23T09:24:37.640Z,23.88
2018-11-23T09:30:32.626Z,25.22
2018-11-23T09:36:27.649Z,23.47
2018-11-23T09:42:22.644Z,26.51
2018-11-23T09:48:17.655Z,31.27
2018-11-23T09:54:12.678Z,35.94
2018-11-23T10:00:07.698Z,37.93
2018-11-23T10:06:02.684Z,42.84
2018-11-23T10:11:57.678Z,39.55
2018-11-23T10:17:52.698Z,39.13
2018-11-23T10:23:47.688Z,32.99
2018-11-23T10:29:42.689Z,31.77
2018-11-23T10:35:37.659Z,29.81
2018-11-23T10:41:32.677Z,29.62
2018-11-23T10:47:27.679Z,34.35
2018-11-23T10:53:22.679Z,23.05
2018-11-23T10:59:17.742Z,26.68
2018-11-23T11:05:12.769Z,24.02
2018-11-23T11:11:08.156Z,15.96
2018-11-23T11:17:02.723Z,10.98
2018-11-23T11:22:57.715Z,9.67
2018-11-23T11:28:52.716Z,7.76
2018-11-23T11:34:47.720Z,7.63
2018-11-23T11:40:42.748Z,9.2
2018-11-23T11:46:37.742Z,12.61
2018-11-23T11:52:32.757Z,10.95
2018-11-23T11:58:27.749Z,7.83
2018-11-23T12:04:23.051Z,5.37
2018-11-23T12:10:17.771Z,7.5
2018-11-23T12:16:12.772Z,16.6
2018-11-23T12:22:07.765Z,27.53
2018-11-23T12:28:02.782Z,23.03
2018-11-23T12:33:57.795Z,21.97
2018-11-23T12:39:52.827Z,25.33
2018-11-23T12:45:47.781Z,27.61
2018-11-23T12:51:42.819Z,21.01
2018-11-23T12:57:37.788Z,15.46
2018-11-23T13:03:32.812Z,19.77
2018-11-23T13:09:27.805Z,18.46
2018-11-23T13:15:22.806Z,18.85
2018-11-23T13:21:17.835Z,16.9
2018-11-23T13:27:12.838Z,16.84
2018-11-23T13:33:07.824Z,18.09
2018-11-23T13:39:02.836Z,18.92
2018-11-23T13:44:57.874Z,20.47
2018-11-23T13:50:52.850Z,22.09
2018-11-23T13:56:47.864Z,19.14
2018-11-23T14:02:42.872Z,15.87
2018-11-23T14:08:37.831Z,13.49
2018-11-23T14:14:32.873Z,9.79
2018-11-23T14:20:27.852Z,7.75
2018-11-23T14:26:22.870Z,9.83
2018-11-23T14:32:17.889Z,7.94
2018-11-23T14:38:12.908Z,7.87
2018-11-23T14:44:07.873Z,40.42
2018-11-23T14:50:02.881Z,34.68
2018-11-23T14:55:57.890Z,30.06
2018-11-23T15:01:52.931Z,5.73
2018-11-23T15:07:47.966Z,26.58
2018-11-23T15:13:42.919Z,26.67
2018-11-23T15:19:37.937Z,23.46
2018-11-23T15:25:32.923Z,20.52
2018-11-23T15:31:27.920Z,24.55
2018-11-23T15:37:22.954Z,24.24
2018-11-23T15:43:17.981Z,25.81
2018-11-23T15:49:12.962Z,7.02
2018-11-23T15:55:07.979Z,6.52
2018-11-23T16:01:02.951Z,8.87
2018-11-23T16:06:58.009Z,8.14
2018-11-23T16:12:52.979Z,12.25
2018-11-23T16:18:47.959Z,7.76
2018-11-23T16:24:42.979Z,8.36
2018-11-23T16:30:37.958Z,14.61
2018-11-23T16:36:32.991Z,13.16
2018-11-23T16:42:27.984Z,12.11
2018-11-23T16:48:22.986Z,14.19
2018-11-23T16:54:17.991Z,13.62
2018-11-23T17:00:13.031Z,12.03
2018-11-23T17:06:08.096Z,13.76
2018-11-23T17:12:03.068Z,19.63
2018-11-23T17:17:58.027Z,8.67
2018-11-23T17:23:53.015Z,8.37
2018-11-23T17:29:48.046Z,11.53
2018-11-23T17:35:43.040Z,15.24
2018-11-23T17:41:38.022Z,18.01
2018-11-23T17:47:33.024Z,16.78
2018-11-23T17:53:28.036Z,18.09
2018-11-23T17:59:23.041Z,16.35
2018-11-23T18:05:18.085Z,20.75
2018-11-23T18:11:13.074Z,26.23
2018-11-23T18:17:08.044Z,12.91
2018-11-23T18:23:03.069Z,17.76
2018-11-23T18:28:58.141Z,16.51
2018-11-23T18:34:53.101Z,19.34
2018-11-23T18:40:48.143Z,19.68
2018-11-23T18:46:43.093Z,22.51
2018-11-23T18:52:38.115Z,14.26
2018-11-23T18:58:33.112Z,23.54
2018-11-23T19:04:28.091Z,18.59
2018-11-23T19:10:23.147Z,17.33
2018-11-23T19:16:18.116Z,20.22
2018-11-23T19:22:13.127Z,19.87
2018-11-23T19:28:08.128Z,17.3
2018-11-23T19:34:03.155Z,17.09
2018-11-23T19:39:58.137Z,23.21
2018-11-23T19:45:53.140Z,16.06
2018-11-23T19:51:48.147Z,22.37
2018-11-23T19:57:43.150Z,16.34
2018-11-23T20:03:38.151Z,17.8
2018-11-23T20:09:33.547Z,20.6
2018-11-23T20:15:28.150Z,23.57
2018-11-23T20:21:23.181Z,20.23
2018-11-23T20:27:18.174Z,26.41
2018-11-23T20:33:13.183Z,25.85
2018-11-23T20:39:08.208Z,27.2
2018-11-23T20:45:03.224Z,28.02
2018-11-23T20:50:58.187Z,25.27
2018-11-23T20:56:53.200Z,23.98
2018-11-23T21:02:48.218Z,31.5
2018-11-23T21:08:43.259Z,32.76
2018-11-23T21:14:38.226Z,29.23
2018-11-23T21:20:33.213Z,24.28
2018-11-23T21:26:28.224Z,19.73
2018-11-23T21:32:23.248Z,20.61
2018-11-23T21:38:18.266Z,15.99
2018-11-23T21:44:13.237Z,17.52
2018-11-23T21:50:08.245Z,17.94
2018-11-23T21:56:09.254Z,17.61
2018-11-23T22:01:58.286Z,16.36
2018-11-23T22:07:53.263Z,16.01
2018-11-23T22:13:48.303Z,20.48
2018-11-23T22:19:43.270Z,19.33
2018-11-23T22:25:38.291Z,21.42
2018-11-23T22:31:33.297Z,18.6
2018-11-23T22:37:28.295Z,20.27
2018-11-23T22:43:23.294Z,15.97
2018-11-23T22:49:18.303Z,22.57
2018-11-23T22:55:13.344Z,18.53
2018-11-23T23:01:08.341Z,14.62
2018-11-23T23:07:03.358Z,15
2018-11-23T23:12:58.309Z,17.13
2018-11-23T23:18:53.367Z,13.64
2018-11-23T23:24:48.348Z,18.53
2018-11-23T23:30:43.336Z,14.8
2018-11-23T23:36:38.335Z,13.88
2018-11-23T23:42:33.344Z,13.63
2018-11-23T23:48:28.352Z,13.39
2018-11-23T23:54:23.374Z,20.06
